createdAt,value
2018-11-26T00:00:04.835Z,48.44
2018-11-26T00:01:04.821Z,48.34
2018-11-26T00:02:04.811Z,48.22
2018-11-26T00:03:04.804Z,48.34
2018-11-26T00:04:04.825Z,48.02
2018-11-26T00:05:04.782Z,48.22
2018-11-26T00:06:04.771Z,48.94
2018-11-26T00:07:04.757Z,48.74
2018-11-26T00:08:04.751Z,48.14
2018-11-26T00:09:04.742Z,47.94
2018-11-26T00:10:04.769Z,48.54
2018-11-26T00:11:04.718Z,47.42
2018-11-26T00:12:04.709Z,48.02
2018-11-26T00:13:04.696Z,48.02
2018-11-26T00:14:04.686Z,47.84
2018-11-26T00:15:04.679Z,47.84
2018-11-26T00:16:04.716Z,47.64
2018-11-26T00:17:04.656Z,48.14
2018-11-26T00:18:04.644Z,48.11
2018-11-26T00:19:04.636Z,48.02
2018-11-26T00:20:04.628Z,47.94
2018-11-26T00:21:04.609Z,47.94
2018-11-26T00:22:04.642Z,47.74
2018-11-26T00:23:04.595Z,47.94
2018-11-26T00:24:04.580Z,47.94
2018-11-26T00:25:04.572Z,47.94
2018-11-26T00:26:04.559Z,47.84
2018-11-26T00:27:04.556Z,47.94
2018-11-26T00:28:04.574Z,48.02
2018-11-26T00:29:04.535Z,47.74
2018-11-26T00:30:04.519Z,48.04
2018-11-26T00:31:04.510Z,47.94
2018-11-26T00:32:04.496Z,48.14
2018-11-26T00:33:04.484Z,47.54
2018-11-26T00:34:04.512Z,48.24
2018-11-26T00:35:04.463Z,47.92
2018-11-26T00:36:04.452Z,48.04
2018-11-26T00:37:04.441Z,47.81
2018-11-26T00:38:04.435Z,47.84
2018-11-26T00:39:04.424Z,48.11
2018-11-26T00:40:04.453Z,47.84
2018-11-26T00:41:04.399Z,47.04
2018-11-26T00:42:04.391Z,47.04
2018-11-26T00:43:04.384Z,47.64
2018-11-26T00:44:04.373Z,47.72
2018-11-26T00:45:04.358Z,47.04
2018-11-26T00:46:04.387Z,46.94
2018-11-26T00:47:04.339Z,47.04
2018-11-26T00:48:04.326Z,47.24
2018-11-26T00:49:04.318Z,47.24
2018-11-26T00:50:04.305Z,47.34
2018-11-26T00:51:04.295Z,47.22
2018-11-26T00:52:04.327Z,46.92
2018-11-26T00:53:04.279Z,47.34
2018-11-26T00:54:04.264Z,47.64
2018-11-26T00:55:04.255Z,47.44
2018-11-26T00:56:04.244Z,47.44
2018-11-26T00:57:04.234Z,47.24
2018-11-26T00:58:04.257Z,47.24
2018-11-26T00:59:04.211Z,47.14
2018-11-26T01:00:04.198Z,47.24
2018-11-26T01:01:04.192Z,47.44
2018-11-26T01:02:04.180Z,47.34
2018-11-26T01:03:04.177Z,47.24
2018-11-26T01:04:04.195Z,47.54
2018-11-26T01:05:04.146Z,47.54
2018-11-26T01:06:04.137Z,46.94
2018-11-26T01:07:04.146Z,47.64
2018-11-26T01:08:04.116Z,46.94
2018-11-26T01:09:04.104Z,47.54
2018-11-26T01:10:04.132Z,47.04
2018-11-26T01:11:04.086Z,47.04
2018-11-26T01:12:04.076Z,47.24
2018-11-26T01:13:04.066Z,47.24
2018-11-26T01:14:04.052Z,47.04
2018-11-26T01:15:04.043Z,47.14
2018-11-26T01:16:04.069Z,47.14
2018-11-26T01:17:04.022Z,46.74
2018-11-26T01:18:04.017Z,47.44
2018-11-26T01:19:04.003Z,47.04
2018-11-26T01:20:03.990Z,47.24
2018-11-26T01:21:03.981Z,47.24
2018-11-26T01:22:04.005Z,47.04
2018-11-26T01:23:03.958Z,46.84
2018-11-26T01:24:03.953Z,46.84
2018-11-26T01:25:03.939Z,47.24
2018-11-26T01:26:03.927Z,46.92
2018-11-26T01:27:03.916Z,45.94
2018-11-26T01:28:03.942Z,45.94
2018-11-26T01:29:03.894Z,46.44
2018-11-26T01:30:03.884Z,46.24
2018-11-26T01:31:03.876Z,46.04
2018-11-26T01:32:03.863Z,46.44
2018-11-26T01:33:03.853Z,46.34
2018-11-26T01:34:03.877Z,46.24
2018-11-26T01:35:03.831Z,46.24
2018-11-26T01:36:03.825Z,46.04
2018-11-26T01:37:03.812Z,45.94
2018-11-26T01:38:03.800Z,46.44
2018-11-26T01:39:03.791Z,46.54
2018-11-26T01:40:03.817Z,46.44
2018-11-26T01:41:03.771Z,46.54
2018-11-26T01:42:03.761Z,45.94
2018-11-26T01:43:03.750Z,46.44
2018-11-26T01:44:03.738Z,46.44
2018-11-26T01:45:03.728Z,46.54
2018-11-26T01:46:03.754Z,46.22
2018-11-26T01:47:03.708Z,46.44
2018-11-26T01:48:03.702Z,46.34
2018-11-26T01:49:03.685Z,46.64
2018-11-26T01:50:03.675Z,46.64
2018-11-26T01:51:03.664Z,46.24
2018-11-26T01:52:03.688Z,46.24
2018-11-26T01:53:03.649Z,46.04
2018-11-26T01:54:03.633Z,46.14
2018-11-26T01:55:03.622Z,46.14
2018-11-26T01:56:03.610Z,46.24
2018-11-26T01:57:03.603Z,45.84
2018-11-26T01:58:03.626Z,46.14
2018-11-26T01:59:03.581Z,45.43
2018-11-26T02:00:03.567Z,45.54
2018-11-26T02:01:03.557Z,45.74
2018-11-26T02:02:03.547Z,45.64
2018-11-26T02:03:03.542Z,45.64
2018-11-26T02:04:03.564Z,45.84
2018-11-26T02:05:03.521Z,45.54
2018-11-26T02:06:03.503Z,45.43
2018-11-26T02:07:03.496Z,45.74
2018-11-26T02:08:03.484Z,45.54
2018-11-26T02:09:03.475Z,45.64
2018-11-26T02:10:03.506Z,45.54
2018-11-26T02:11:03.458Z,45.54
2018-11-26T02:12:03.446Z,45.54
2018-11-26T02:13:03.430Z,45.94
2018-11-26T02:14:03.419Z,45.94
2018-11-26T02:15:03.411Z,45.94
2018-11-26T02:16:03.435Z,45.94
2018-11-26T02:17:03.392Z,46.04
2018-11-26T02:18:03.380Z,45.94
2018-11-26T02:19:03.371Z,46.14
2018-11-26T02:20:03.360Z,45.34
2018-11-26T02:21:03.345Z,45.64
2018-11-26T02:22:03.373Z,45.24
2018-11-26T02:23:03.324Z,45.94
2018-11-26T02:24:03.314Z,45.74
2018-11-26T02:25:03.304Z,45.84
2018-11-26T02:26:03.293Z,45.94
2018-11-26T02:27:03.287Z,45.64
2018-11-26T02:28:03.314Z,45.74
2018-11-26T02:29:03.262Z,45.84
2018-11-26T02:30:03.253Z,45.43
2018-11-26T02:31:03.243Z,45.64
2018-11-26T02:32:03.230Z,45.54
2018-11-26T02:33:03.222Z,45.54
2018-11-26T02:34:03.252Z,45.43
2018-11-26T02:35:03.200Z,45.43
2018-11-26T02:36:03.188Z,45.54
2018-11-26T02:37:03.175Z,45.54
2018-11-26T02:38:03.167Z,45.94
2018-11-26T02:39:03.160Z,45.84
2018-11-26T02:40:03.185Z,45.84
2018-11-26T02:41:03.135Z,45.74
2018-11-26T02:42:03.127Z,45.74
2018-11-26T02:43:03.116Z,45.84
2018-11-26T02:44:03.108Z,45.54
2018-11-26T02:45:03.094Z,45.64
2018-11-26T02:46:03.120Z,45.64
2018-11-26T02:47:03.072Z,45.54
2018-11-26T02:48:03.071Z,45.24
2018-11-26T02:49:03.058Z,45.43
2018-11-26T02:50:03.049Z,45.34
2018-11-26T02:51:03.031Z,45.34
2018-11-26T02:52:03.066Z,45.14
2018-11-26T02:53:03.011Z,45.04
2018-11-26T02:54:02.999Z,45.64
2018-11-26T02:55:02.991Z,45.54
2018-11-26T02:56:02.980Z,45.54
2018-11-26T02:57:02.970Z,45.64
2018-11-26T02:58:02.993Z,45.43
2018-11-26T02:59:02.948Z,45.24
2018-11-26T03:00:02.936Z,45.04
2018-11-26T03:01:02.925Z,44.84
2018-11-26T03:02:02.917Z,44.84
2018-11-26T03:03:02.907Z,44.84
2018-11-26T03:04:02.936Z,44.64
2018-11-26T03:05:02.881Z,44.93
2018-11-26T03:06:09.904Z,44.34
2018-11-26T03:07:02.862Z,44.34
2018-11-26T03:08:02.851Z,44.64
2018-11-26T03:09:02.839Z,44.54
2018-11-26T03:10:02.867Z,44.24
2018-11-26T03:11:02.825Z,44.34
2018-11-26T03:12:02.816Z,44.34
2018-11-26T03:13:02.797Z,44.43
2018-11-26T03:14:02.803Z,44.24
2018-11-26T03:15:02.783Z,44.34
2018-11-26T03:16:02.792Z,44.74
2018-11-26T03:17:02.755Z,44.74
2018-11-26T03:18:02.745Z,44.34
2018-11-26T03:19:02.735Z,44.84
2018-11-26T03:20:02.728Z,44.84
2018-11-26T03:21:02.738Z,44.74
2018-11-26T03:22:02.703Z,44.54
2018-11-26T03:23:02.691Z,44.93
2018-11-26T03:24:02.682Z,44.84
2018-11-26T03:25:02.670Z,44.93
2018-11-26T03:26:02.688Z,44.84
2018-11-26T03:27:02.663Z,44.84
2018-11-26T03:28:02.640Z,44.54
2018-11-26T03:29:02.628Z,45.04
2018-11-26T03:30:02.659Z,44.84
2018-11-26T03:31:02.632Z,44.84
2018-11-26T03:32:02.596Z,44.54
2018-11-26T03:33:02.585Z,44.84
2018-11-26T03:34:02.576Z,44.64
2018-11-26T03:35:02.568Z,44.74
2018-11-26T03:36:02.589Z,45.14
2018-11-26T03:37:02.554Z,45.14
2018-11-26T03:38:02.532Z,44.54
2018-11-26T03:39:02.524Z,44.64
2018-11-26T03:40:02.518Z,44.74
2018-11-26T03:41:02.524Z,44.64
2018-11-26T03:42:02.490Z,44.84
2018-11-26T03:43:02.481Z,44.64
2018-11-26T03:44:02.467Z,44.84
2018-11-26T03:45:02.460Z,44.64
2018-11-26T03:46:02.485Z,45.14
2018-11-26T03:47:02.440Z,44.43
2018-11-26T03:48:02.426Z,44.54
2018-11-26T03:49:02.420Z,44.54
2018-11-26T03:50:02.415Z,44.43
2018-11-26T03:51:02.419Z,43.84
2018-11-26T03:52:02.383Z,44.34
2018-11-26T03:53:02.373Z,44.13
2018-11-26T03:54:02.365Z,44.13
2018-11-26T03:55:02.364Z,44.24
2018-11-26T03:56:02.367Z,44.04
2018-11-26T03:57:02.336Z,44.13
2018-11-26T03:58:02.323Z,43.93
2018-11-26T03:59:02.310Z,43.93
2018-11-26T04:00:02.309Z,43.93
2018-11-26T04:01:02.316Z,43.93
2018-11-26T04:02:02.290Z,44.13
2018-11-26T04:03:02.270Z,44.13
2018-11-26T04:04:02.257Z,44.24
2018-11-26T04:05:02.248Z,44.43
2018-11-26T04:06:02.262Z,44.43
2018-11-26T04:07:02.230Z,44.24
2018-11-26T04:08:02.216Z,44.24
2018-11-26T04:09:02.203Z,44.13
2018-11-26T04:10:02.216Z,44.24
2018-11-26T04:11:02.214Z,44.54
2018-11-26T04:12:02.173Z,44.24
2018-11-26T04:13:02.174Z,44.54
2018-11-26T04:14:02.151Z,44.24
2018-11-26T04:15:02.145Z,44.24
2018-11-26T04:16:02.156Z,44.24
2018-11-26T04:17:02.127Z,44.43
2018-11-26T04:18:02.119Z,44.43
2018-11-26T04:19:02.098Z,44.43
2018-11-26T04:20:02.099Z,44.34
2018-11-26T04:21:02.134Z,44.34
2018-11-26T04:22:02.089Z,44.34
2018-11-26T04:23:02.060Z,44.64
2018-11-26T04:24:02.045Z,44.24
2018-11-26T04:25:02.044Z,44.24
2018-11-26T04:26:02.053Z,44.24
2018-11-26T04:27:02.020Z,44.34
2018-11-26T04:28:02.010Z,44.34
2018-11-26T04:29:01.995Z,44.24
2018-11-26T04:30:01.984Z,43.93
2018-11-26T04:31:02.006Z,44.34
2018-11-26T04:32:01.966Z,44.06
2018-11-26T04:33:01.951Z,44.04
2018-11-26T04:34:01.943Z,44.34
2018-11-26T04:35:01.936Z,43.93
2018-11-26T04:36:01.958Z,43.93
2018-11-26T04:37:01.910Z,44.13
2018-11-26T04:38:01.911Z,44.13
2018-11-26T04:39:01.889Z,43.93
2018-11-26T04:40:01.875Z,43.84
2018-11-26T04:41:01.894Z,43.74
2018-11-26T04:42:01.856Z,43.74
2018-11-26T04:43:01.844Z,43.84
2018-11-26T04:44:01.835Z,43.84
2018-11-26T04:45:01.837Z,43.74
2018-11-26T04:46:01.855Z,43.84
2018-11-26T04:47:01.799Z,43.84
2018-11-26T04:48:01.807Z,43.63
2018-11-26T04:49:01.781Z,43.74
2018-11-26T04:50:01.770Z,43.74
2018-11-26T04:51:01.784Z,43.63
2018-11-26T04:52:01.748Z,43.54
2018-11-26T04:53:01.737Z,43.63
2018-11-26T04:54:01.731Z,43.93
2018-11-26T04:55:01.716Z,44.24
2018-11-26T04:56:01.729Z,43.96
2018-11-26T04:57:01.697Z,43.43
2018-11-26T04:58:01.683Z,43.93
2018-11-26T04:59:01.673Z,43.84
2018-11-26T05:00:01.665Z,43.93
2018-11-26T05:01:01.683Z,43.84
2018-11-26T05:02:01.651Z,43.84
2018-11-26T05:03:01.632Z,43.93
2018-11-26T05:04:01.623Z,43.93
2018-11-26T05:05:01.608Z,44.04
2018-11-26T05:06:01.662Z,43.93
2018-11-26T05:07:01.589Z,44.24
2018-11-26T05:08:01.587Z,44.04
2018-11-26T05:09:01.570Z,44.06
2018-11-26T05:10:01.557Z,44.13
2018-11-26T05:11:01.552Z,43.84
2018-11-26T05:12:01.587Z,43.63
2018-11-26T05:13:01.526Z,43.63
2018-11-26T05:14:01.516Z,43.54
2018-11-26T05:15:01.522Z,43.54
2018-11-26T05:16:01.495Z,43.24
2018-11-26T05:17:01.484Z,43.24
2018-11-26T05:18:01.514Z,43.43
2018-11-26T05:19:01.481Z,43.04
2018-11-26T05:20:01.453Z,43.04
2018-11-26T05:21:01.441Z,43.43
2018-11-26T05:22:01.442Z,43.13
2018-11-26T05:23:01.425Z,42.93
2018-11-26T05:24:01.435Z,42.93
2018-11-26T05:25:01.401Z,43.24
2018-11-26T05:26:01.394Z,43.54
2018-11-26T05:27:01.377Z,43.13
2018-11-26T05:28:01.366Z,42.96
2018-11-26T05:29:01.389Z,43.33
2018-11-26T05:30:01.347Z,43.33
2018-11-26T05:31:01.336Z,43.54
2018-11-26T05:32:01.324Z,43.43
2018-11-26T05:33:01.316Z,43.43
2018-11-26T05:34:01.334Z,43.43
2018-11-26T05:35:01.293Z,43.43
2018-11-26T05:36:01.285Z,43.24
2018-11-26T05:37:01.273Z,43.24
2018-11-26T05:38:01.262Z,43.24
2018-11-26T05:39:01.278Z,43.54
2018-11-26T05:40:01.240Z,43.63
2018-11-26T05:41:01.231Z,43.63
2018-11-26T05:42:01.229Z,43.55
2018-11-26T05:43:01.207Z,43.84
2018-11-26T05:44:01.224Z,43.43
2018-11-26T05:45:01.189Z,43.13
2018-11-26T05:46:01.179Z,43.04
2018-11-26T05:47:01.166Z,43.24
2018-11-26T05:48:01.157Z,43.43
2018-11-26T05:49:01.175Z,44.04
2018-11-26T05:50:01.133Z,43.93
2018-11-26T05:51:01.129Z,43.74
2018-11-26T05:52:01.112Z,43.63
2018-11-26T05:53:01.104Z,43.63
2018-11-26T05:54:01.125Z,44.06
2018-11-26T05:55:01.101Z,44.34
2018-11-26T05:56:01.075Z,44.43
2018-11-26T05:57:01.060Z,44.24
2018-11-26T05:58:01.051Z,44.84
2018-11-26T05:59:01.064Z,44.54
2018-11-26T06:00:01.029Z,44.64
2018-11-26T06:01:01.019Z,45.74
2018-11-26T06:02:01.010Z,45.43
2018-11-26T06:03:01.002Z,45.96
2018-11-26T06:04:01.013Z,45.64
2018-11-26T06:05:00.988Z,45.94
2018-11-26T06:06:00.968Z,45.64
2018-11-26T06:07:00.956Z,45.43
2018-11-26T06:08:00.950Z,45.84
2018-11-26T06:09:00.959Z,45.43
2018-11-26T06:10:00.925Z,45.64
2018-11-26T06:11:00.912Z,45.54
2018-11-26T06:12:00.903Z,45.86
2018-11-26T06:13:00.893Z,46.24
2018-11-26T06:14:00.951Z,45.43
2018-11-26T06:15:00.875Z,45.94
2018-11-26T06:16:00.861Z,45.94
2018-11-26T06:17:00.855Z,45.64
2018-11-26T06:18:00.843Z,45.34
2018-11-26T06:19:00.866Z,45.54
2018-11-26T06:20:00.864Z,45.64
2018-11-26T06:21:00.809Z,45.54
2018-11-26T06:22:00.799Z,45.84
2018-11-26T06:23:00.789Z,45.94
2018-11-26T06:24:00.809Z,45.94
2018-11-26T06:25:00.767Z,45.94
2018-11-26T06:26:00.755Z,45.74
2018-11-26T06:27:00.745Z,45.74
2018-11-26T06:28:00.736Z,45.74
2018-11-26T06:29:00.751Z,45.74
2018-11-26T06:30:00.712Z,45.84
2018-11-26T06:31:00.706Z,46.04
2018-11-26T06:32:00.691Z,46.44
2018-11-26T06:33:00.681Z,46.24
2018-11-26T06:34:00.709Z,47.14
2018-11-26T06:35:00.661Z,47.94
2018-11-26T06:36:00.653Z,48.54
2018-11-26T06:37:00.681Z,49.24
2018-11-26T06:38:00.629Z,49.14
2018-11-26T06:39:00.648Z,49.14
2018-11-26T06:40:00.606Z,49.24
2018-11-26T06:41:00.596Z,49.14
2018-11-26T06:42:00.594Z,49.04
2018-11-26T06:43:00.573Z,48.64
2018-11-26T06:44:00.596Z,48.84
2018-11-26T06:45:00.556Z,48.64
2018-11-26T06:46:00.544Z,48.64
2018-11-26T06:47:00.545Z,48.74
2018-11-26T06:48:00.524Z,48.14
2018-11-26T06:49:00.544Z,49.14
2018-11-26T06:50:00.510Z,48.64
2018-11-26T06:51:00.503Z,48.64
2018-11-26T06:52:00.483Z,48.64
2018-11-26T06:53:00.474Z,48.74
2018-11-26T06:54:00.484Z,49.14
2018-11-26T06:55:00.451Z,48.74
2018-11-26T06:56:00.441Z,48.74
2018-11-26T06:57:00.437Z,48.34
2018-11-26T06:58:00.419Z,48.44
2018-11-26T06:59:00.434Z,49.24
2018-11-26T07:00:00.398Z,48.34
2018-11-26T07:01:00.387Z,48.24
2018-11-26T07:02:00.373Z,48.44
2018-11-26T07:03:00.365Z,48.34
2018-11-26T07:04:00.376Z,48.44
2018-11-26T07:05:00.344Z,48.34
2018-11-26T07:06:00.331Z,48.64
2018-11-26T07:07:00.321Z,48.64
2018-11-26T07:08:00.337Z,48.64
2018-11-26T07:09:00.302Z,48.64
2018-11-26T07:10:00.290Z,49.04
2018-11-26T07:11:00.281Z,49.14
2018-11-26T07:12:00.269Z,48.94
2018-11-26T07:13:00.283Z,49.14
2018-11-26T07:14:00.250Z,49.04
2018-11-26T07:15:00.241Z,49.14
2018-11-26T07:16:00.229Z,49.04
2018-11-26T07:17:00.219Z,49.14
2018-11-26T07:18:00.237Z,49.24
2018-11-26T07:19:00.194Z,48.34
2018-11-26T07:20:00.185Z,48.74
2018-11-26T07:21:00.176Z,48.64
2018-11-26T07:22:00.165Z,48.34
2018-11-26T07:23:00.180Z,48.44
2018-11-26T07:24:00.144Z,48.04
2018-11-26T07:25:00.136Z,48.54
2018-11-26T07:26:00.130Z,48.74
2018-11-26T07:27:00.112Z,48.14
2018-11-26T07:28:00.124Z,47.56
2018-11-26T07:29:00.093Z,47.94
2018-11-26T07:30:00.112Z,47.74
2018-11-26T07:31:00.076Z,47.36
2018-11-26T07:32:00.071Z,48.26
2018-11-26T07:33:00.086Z,48.46
2018-11-26T07:34:00.040Z,47.84
2018-11-26T07:35:00.034Z,47.86
2018-11-26T07:36:00.026Z,46.96
2018-11-26T07:37:00.008Z,47.16
2018-11-26T07:37:59.994Z,47.26
2018-11-26T07:39:00.018Z,47.04
2018-11-26T07:39:59.988Z,47.36
2018-11-26T07:40:59.965Z,46.46
2018-11-26T07:41:59.954Z,45.96
2018-11-26T07:42:59.946Z,46.04
2018-11-26T07:43:59.972Z,46.86
2018-11-26T07:44:59.923Z,46.26
2018-11-26T07:45:59.911Z,46.56
2018-11-26T07:46:59.903Z,46.54
2018-11-26T07:47:59.892Z,46.46
2018-11-26T07:48:59.905Z,46.66
2018-11-26T07:49:59.869Z,46.96
2018-11-26T07:50:59.859Z,46.36
2018-11-26T07:51:59.849Z,46.66
2018-11-26T07:52:59.838Z,46.06
2018-11-26T07:53:59.852Z,46.06
2018-11-26T07:54:59.815Z,45.36
2018-11-26T07:55:59.810Z,45.74
2018-11-26T07:56:59.793Z,45.56
2018-11-26T07:57:59.783Z,45.54
2018-11-26T07:58:59.799Z,45.56
2018-11-26T07:59:59.764Z,45.56
2018-11-26T08:00:59.753Z,45.96
2018-11-26T08:01:59.751Z,45.94
2018-11-26T08:02:59.742Z,46.04
2018-11-26T08:03:59.745Z,45.94
2018-11-26T08:04:59.710Z,45.94
2018-11-26T08:05:59.699Z,45.84
2018-11-26T08:06:59.687Z,46.26
2018-11-26T08:07:59.675Z,45.64
2018-11-26T08:08:59.701Z,45.94
2018-11-26T08:09:59.656Z,45.43
2018-11-26T08:10:59.648Z,45.43
2018-11-26T08:11:59.634Z,45.64
2018-11-26T08:12:59.623Z,45.64
2018-11-26T08:13:59.638Z,45.54
2018-11-26T08:14:59.602Z,45.74
2018-11-26T08:15:59.605Z,45.54
2018-11-26T08:16:59.581Z,45.64
2018-11-26T08:17:59.577Z,45.04
2018-11-26T08:18:59.585Z,45.24
2018-11-26T08:19:59.548Z,45.43
2018-11-26T08:20:59.538Z,45.14
2018-11-26T08:21:59.535Z,45.34
2018-11-26T08:22:59.543Z,45.24
2018-11-26T08:23:59.508Z,45.74
2018-11-26T08:24:59.495Z,45.43
2018-11-26T08:25:59.498Z,45.14
2018-11-26T08:26:59.475Z,45.84
2018-11-26T08:27:59.492Z,45.04
2018-11-26T08:28:59.454Z,44.93
2018-11-26T08:29:59.442Z,44.93
2018-11-26T08:30:59.432Z,44.56
2018-11-26T08:31:59.422Z,44.84
2018-11-26T08:32:59.445Z,44.84
2018-11-26T08:33:59.397Z,44.74
2018-11-26T08:34:59.388Z,44.84
2018-11-26T08:35:59.400Z,44.34
2018-11-26T08:36:59.367Z,44.43
2018-11-26T08:37:59.373Z,44.84
2018-11-26T08:38:59.386Z,44.24
2018-11-26T08:39:59.335Z,44.84
2018-11-26T08:40:59.339Z,44.84
2018-11-26T08:41:59.314Z,44.34
2018-11-26T08:42:59.303Z,44.24
2018-11-26T08:43:59.318Z,44.43
2018-11-26T08:44:59.282Z,44.84
2018-11-26T08:45:59.272Z,44.43
2018-11-26T08:46:59.260Z,44.26
2018-11-26T08:47:59.252Z,44.56
2018-11-26T08:48:59.281Z,44.56
2018-11-26T08:49:59.229Z,44.54
2018-11-26T08:50:59.220Z,44.86
2018-11-26T08:51:59.206Z,44.93
2018-11-26T08:52:59.198Z,44.54
2018-11-26T08:53:59.213Z,45.04
2018-11-26T08:54:59.175Z,44.86
2018-11-26T08:55:59.164Z,44.64
2018-11-26T08:56:59.152Z,44.54
2018-11-26T08:57:59.143Z,44.86
2018-11-26T08:58:59.157Z,44.66
2018-11-26T08:59:59.121Z,45.14
2018-11-26T09:00:59.129Z,45.04
2018-11-26T09:01:59.100Z,45.04
2018-11-26T09:02:59.090Z,45.14
2018-11-26T09:03:59.103Z,45.16
2018-11-26T09:04:59.069Z,45.14
2018-11-26T09:05:59.059Z,45.14
2018-11-26T09:07:06.097Z,44.76
2018-11-26T09:07:59.037Z,44.54
2018-11-26T09:08:59.054Z,44.74
2018-11-26T09:09:59.014Z,44.64
2018-11-26T09:10:59.007Z,44.54
2018-11-26T09:11:58.994Z,44.54
2018-11-26T09:12:58.989Z,44.04
2018-11-26T09:13:59.001Z,44.04
2018-11-26T09:14:58.961Z,43.93
2018-11-26T09:15:58.952Z,44.13
2018-11-26T09:16:58.941Z,44.16
2018-11-26T09:17:58.929Z,43.93
2018-11-26T09:18:58.946Z,43.84
2018-11-26T09:19:58.910Z,43.76
2018-11-26T09:20:58.899Z,43.93
2018-11-26T09:21:58.889Z,44.43
2018-11-26T09:22:58.876Z,44.24
2018-11-26T09:23:58.898Z,43.96
2018-11-26T09:24:58.863Z,44.35
2018-11-26T09:25:58.849Z,44.24
2018-11-26T09:26:58.840Z,44.43
2018-11-26T09:27:58.824Z,44.43
2018-11-26T09:28:58.840Z,44.04
2018-11-26T09:29:58.801Z,43.96
2018-11-26T09:30:58.796Z,44.24
2018-11-26T09:31:58.782Z,43.93
2018-11-26T09:32:58.771Z,44.26
2018-11-26T09:33:58.786Z,44.34
2018-11-26T09:34:58.750Z,44.24
2018-11-26T09:35:58.741Z,44.24
2018-11-26T09:36:58.731Z,44.35
2018-11-26T09:37:58.718Z,44.56
2018-11-26T09:38:58.735Z,44.56
2018-11-26T09:39:58.704Z,44.26
2018-11-26T09:40:58.688Z,44.74
2018-11-26T09:41:58.683Z,44.64
2018-11-26T09:42:58.676Z,44.34
2018-11-26T09:43:58.681Z,44.34
2018-11-26T09:44:58.645Z,44.34
2018-11-26T09:45:58.639Z,44.26
2018-11-26T09:46:58.624Z,43.74
2018-11-26T09:47:58.618Z,43.84
2018-11-26T09:48:58.627Z,43.93
2018-11-26T09:49:58.594Z,43.84
2018-11-26T09:50:58.582Z,43.63
2018-11-26T09:51:58.576Z,43.74
2018-11-26T09:52:58.564Z,43.84
2018-11-26T09:53:58.574Z,43.63
2018-11-26T09:54:58.541Z,43.63
2018-11-26T09:55:58.530Z,43.96
2018-11-26T09:56:58.517Z,43.96
2018-11-26T09:57:58.518Z,43.84
2018-11-26T09:58:58.521Z,43.85
2018-11-26T09:59:58.486Z,43.54
2018-11-26T10:00:58.474Z,43.84
2018-11-26T10:01:58.464Z,43.74
2018-11-26T10:02:58.457Z,43.93
2018-11-26T10:03:58.471Z,44.26
2018-11-26T10:04:58.432Z,44.06
2018-11-26T10:05:58.426Z,44.16
2018-11-26T10:06:58.414Z,43.66
2018-11-26T10:07:58.400Z,43.55
2018-11-26T10:08:58.415Z,43.96
2018-11-26T10:09:58.378Z,44.13
2018-11-26T10:10:58.370Z,44.13
2018-11-26T10:11:58.364Z,43.46
2018-11-26T10:12:58.346Z,43.46
2018-11-26T10:13:58.362Z,43.43
2018-11-26T10:14:58.328Z,43.26
2018-11-26T10:15:58.315Z,43.24
2018-11-26T10:16:58.312Z,43.46
2018-11-26T10:17:58.293Z,43.24
2018-11-26T10:18:58.314Z,43.46
2018-11-26T10:19:58.272Z,43.16
2018-11-26T10:20:58.262Z,43.13
2018-11-26T10:21:58.252Z,42.93
2018-11-26T10:22:58.241Z,43.16
2018-11-26T10:23:58.260Z,43.24
2018-11-26T10:25:01.325Z,43.35
2018-11-26T10:25:59.212Z,43.35
2018-11-26T10:26:58.322Z,43.33
2018-11-26T10:27:58.188Z,43.33
2018-11-26T10:28:58.207Z,43.35
2018-11-26T10:29:58.168Z,43.55
2018-11-26T10:30:58.158Z,43.54
2018-11-26T10:31:58.146Z,43.85
2018-11-26T10:32:58.140Z,43.55
2018-11-26T10:33:58.151Z,43.85
2018-11-26T10:34:58.115Z,43.85
2018-11-26T10:35:58.106Z,43.54
2018-11-26T10:36:58.093Z,43.74
2018-11-26T10:37:58.089Z,43.66
2018-11-26T10:38:58.101Z,43.66
2018-11-26T10:39:58.078Z,43.46
2018-11-26T10:40:58.054Z,43.63
2018-11-26T10:41:58.042Z,43.66
2018-11-26T10:42:58.031Z,43.66
2018-11-26T10:43:58.052Z,43.66
2018-11-26T10:44:58.015Z,43.43
2018-11-26T10:45:58.001Z,43.55
2018-11-26T10:46:57.998Z,43.66
2018-11-26T10:47:58.012Z,43.74
2018-11-26T10:48:57.967Z,43.55
2018-11-26T10:49:57.958Z,43.74
2018-11-26T10:50:57.953Z,43.74
2018-11-26T10:51:57.939Z,43.74
2018-11-26T10:52:57.954Z,43.63
2018-11-26T10:53:57.913Z,43.54
2018-11-26T10:54:57.904Z,43.63
2018-11-26T10:55:57.898Z,43.63
2018-11-26T10:56:57.881Z,43.46
2018-11-26T10:57:57.915Z,43.43
2018-11-26T10:58:57.866Z,44.06
2018-11-26T10:59:57.849Z,43.84
2018-11-26T11:00:57.839Z,43.76
2018-11-26T11:01:57.829Z,43.74
2018-11-26T11:02:57.838Z,43.13
2018-11-26T11:03:57.837Z,43.74
2018-11-26T11:04:57.798Z,43.24
2018-11-26T11:05:57.798Z,43.13
2018-11-26T11:06:57.779Z,43.16
2018-11-26T11:07:57.773Z,43.04
2018-11-26T11:08:57.784Z,43.26
2018-11-26T11:09:57.751Z,43.16
2018-11-26T11:10:57.735Z,43.26
2018-11-26T11:11:57.723Z,43.13
2018-11-26T11:12:57.725Z,43.33
2018-11-26T11:13:57.733Z,43.24
2018-11-26T11:14:57.699Z,43.05
2018-11-26T11:15:57.681Z,42.93
2018-11-26T11:16:57.671Z,43.05
2018-11-26T11:17:57.664Z,43.35
2018-11-26T11:18:57.676Z,43.05
2018-11-26T11:19:57.640Z,43.05
2018-11-26T11:20:57.630Z,43.26
2018-11-26T11:21:57.618Z,43.05
2018-11-26T11:22:57.609Z,43.04
2018-11-26T11:23:57.630Z,43.16
2018-11-26T11:24:57.585Z,43.26
2018-11-26T11:25:57.580Z,43.26
2018-11-26T11:26:57.570Z,42.96
2018-11-26T11:27:57.555Z,42.96
2018-11-26T11:28:57.568Z,43.26
2018-11-26T11:29:57.532Z,42.85
2018-11-26T11:30:57.522Z,42.96
2018-11-26T11:31:57.520Z,42.96
2018-11-26T11:32:57.500Z,43.13
2018-11-26T11:33:57.518Z,43.26
2018-11-26T11:34:57.480Z,43.26
2018-11-26T11:35:57.471Z,43.26
2018-11-26T11:36:57.461Z,43.16
2018-11-26T11:37:57.450Z,43.55
2018-11-26T11:38:57.463Z,43.26
2018-11-26T11:39:57.425Z,43.16
2018-11-26T11:40:57.414Z,42.63
2018-11-26T11:41:57.404Z,42.96
2018-11-26T11:42:57.393Z,43.26
2018-11-26T11:43:57.410Z,42.46
2018-11-26T11:44:57.372Z,42.46
2018-11-26T11:45:57.394Z,42.43
2018-11-26T11:46:57.350Z,42.25
2018-11-26T11:47:57.339Z,42.46
2018-11-26T11:48:57.352Z,42.46
2018-11-26T11:49:57.320Z,42.55
2018-11-26T11:50:57.310Z,42.55
2018-11-26T11:51:57.297Z,42.24
2018-11-26T11:52:57.290Z,43.16
2018-11-26T11:53:57.300Z,42.16
2018-11-26T11:54:57.263Z,43.05
2018-11-26T11:55:57.262Z,42.35
2018-11-26T11:56:57.244Z,43.05
2018-11-26T11:57:57.256Z,42.33
2018-11-26T11:58:57.224Z,42.55
2018-11-26T11:59:57.210Z,42.24
2018-11-26T12:00:57.200Z,42.25
2018-11-26T12:01:57.189Z,42.43
2018-11-26T12:02:57.219Z,42.55
2018-11-26T12:03:57.165Z,42.05
2018-11-26T12:04:57.155Z,42.25
2018-11-26T12:05:57.146Z,42.76
2018-11-26T12:06:57.135Z,42.24
2018-11-26T12:07:57.123Z,42.54
2018-11-26T12:08:57.142Z,42.55
2018-11-26T12:09:57.101Z,42.85
2018-11-26T12:10:57.089Z,42.66
2018-11-26T12:11:57.079Z,42.55
2018-11-26T12:12:57.079Z,42.54
2018-11-26T12:13:57.095Z,42.55
2018-11-26T12:14:57.048Z,42.55
2018-11-26T12:15:57.039Z,42.76
2018-11-26T12:16:57.030Z,42.24
2018-11-26T12:17:57.018Z,42.66
2018-11-26T12:18:57.030Z,42.55
2018-11-26T12:19:56.995Z,42.35
2018-11-26T12:20:56.983Z,42.46
2018-11-26T12:21:56.972Z,42.25
2018-11-26T12:22:56.965Z,42.16
2018-11-26T12:23:56.977Z,42.35
2018-11-26T12:24:56.947Z,42.46
2018-11-26T12:25:56.936Z,42.25
2018-11-26T12:26:56.920Z,42.43
2018-11-26T12:27:56.908Z,42.46
2018-11-26T12:28:56.937Z,42.55
2018-11-26T12:29:56.899Z,42.66
2018-11-26T12:30:56.880Z,42.66
2018-11-26T12:31:56.866Z,42.46
2018-11-26T12:32:56.859Z,42.35
2018-11-26T12:33:56.869Z,42.35
2018-11-26T12:34:56.832Z,42.25
2018-11-26T12:35:56.826Z,43.35
2018-11-26T12:36:57.905Z,42.35
2018-11-26T12:37:56.800Z,42.25
2018-11-26T12:38:56.821Z,42.16
2018-11-26T12:39:56.782Z,42.35
2018-11-26T12:40:56.777Z,42.33
2018-11-26T12:41:56.763Z,42.25
2018-11-26T12:42:56.746Z,42.25
2018-11-26T12:43:56.761Z,42.35
2018-11-26T12:44:56.726Z,42.96
2018-11-26T12:45:56.719Z,42.96
2018-11-26T12:46:56.714Z,42.46
2018-11-26T12:47:56.692Z,42.76
2018-11-26T12:48:56.712Z,42.35
2018-11-26T12:49:56.671Z,42.55
2018-11-26T12:50:56.749Z,42.25
2018-11-26T12:51:56.648Z,42.35